Terminal Aerodrome Forecast
Issued by NWS

Home | Current Version | Previous Version | Graphics & Text | Print | Product List | Glossary On
Versions: 1 2 3 4 5 6 7 8 9 10 11 12 13 14 15
000
FTUS43 KICT 071918 AAA
TAFCNU
TAF AMD
KCNU 071918Z 0719/0818 36013KT 6SM -SN SCT020 OVC040
      TEMPO 0719/0722 3SM -SN BKN017
     FM072200 35009KT 2SM -SN OVC013
      TEMPO 0722/0724 3SM -SN OVC025
     FM080000 35009KT 5SM -SN SCT015 OVC035
     FM080300 33009KT P6SM SCT035=

USA.gov is the U.S. government's official web portal to all federal, state and local government web resources and services.